createdAt,value
2022-09-15T00:00:03.687Z,3.80
2022-09-15T00:02:31.293Z,4.00
2022-09-15T00:04:59.109Z,4.07
2022-09-15T00:07:26.484Z,3.80
2022-09-15T00:09:53.848Z,4.00
2022-09-15T00:12:21.179Z,3.90
2022-09-15T00:14:48.523Z,3.77
2022-09-15T00:17:17.225Z,5.20
2022-09-15T00:19:44.583Z,4.40
2022-09-15T00:22:11.950Z,4.93
2022-09-15T00:24:39.507Z,5.15
2022-09-15T00:27:06.985Z,4.93
2022-09-15T00:29:35.742Z,4.85
2022-09-15T00:32:03.295Z,4.88
2022-09-15T00:34:32.001Z,4.32
2022-09-15T00:36:59.364Z,4.72
2022-09-15T00:39:26.784Z,4.47
2022-09-15T00:41:54.136Z,4.93
2022-09-15T00:44:40.164Z,4.10
2022-09-15T00:47:19.135Z,3.55
2022-09-15T00:49:49.911Z,3.00
2022-09-15T00:52:20.153Z,2.80
2022-09-15T00:54:49.934Z,2.75
2022-09-15T00:57:18.752Z,2.72
2022-09-15T00:59:47.035Z,2.58
2022-09-15T01:02:16.665Z,2.03
2022-09-15T01:04:44.122Z,2.23
2022-09-15T01:07:16.046Z,2.70
2022-09-15T01:09:46.908Z,2.10
2022-09-15T01:12:14.377Z,1.95
2022-09-15T01:14:41.719Z,2.05
2022-09-15T01:17:12.695Z,1.77
2022-09-15T01:20:01.597Z,2.00
2022-09-15T01:22:35.747Z,1.80
2022-09-15T01:25:20.511Z,1.90
2022-09-15T01:27:54.311Z,1.70
2022-09-15T01:30:23.499Z,1.87
2022-09-15T01:33:07.807Z,1.42
2022-09-15T01:35:56.722Z,1.35
2022-09-15T01:38:28.994Z,1.40
2022-09-15T01:40:59.886Z,1.40
2022-09-15T01:43:28.186Z,1.20
2022-09-15T01:45:57.806Z,1.38
2022-09-15T01:48:26.451Z,1.50
2022-09-15T01:50:55.663Z,1.38
2022-09-15T01:53:24.039Z,1.40
2022-09-15T01:55:54.554Z,2.03
2022-09-15T01:58:22.351Z,1.33
2022-09-15T02:00:52.534Z,1.02
2022-09-15T02:03:23.286Z,1.10
2022-09-15T02:05:53.123Z,1.00
2022-09-15T02:08:25.014Z,1.10
2022-09-15T02:10:57.831Z,1.10
2022-09-15T02:13:32.259Z,1.17
2022-09-15T02:16:01.084Z,1.20
2022-09-15T02:18:34.571Z,1.17
2022-09-15T02:21:09.191Z,1.80
2022-09-15T02:23:39.434Z,1.00
2022-09-15T02:26:09.909Z,1.00
2022-09-15T02:28:39.271Z,1.10
2022-09-15T02:31:08.826Z,0.85
2022-09-15T02:33:40.071Z,1.10
2022-09-15T02:36:07.990Z,1.02
2022-09-15T02:38:37.930Z,1.08
2022-09-15T02:41:05.740Z,0.90
2022-09-15T02:43:33.503Z,1.10
2022-09-15T02:46:00.898Z,0.93
2022-09-15T02:48:28.299Z,1.00
2022-09-15T02:50:57.390Z,1.02
2022-09-15T02:53:24.750Z,1.00
2022-09-15T02:55:52.110Z,0.90
2022-09-15T02:58:19.431Z,1.10
2022-09-15T03:00:46.833Z,1.05
2022-09-15T03:03:15.098Z,1.00
2022-09-15T03:05:42.475Z,0.90
2022-09-15T03:08:11.200Z,0.98
2022-09-15T03:10:38.562Z,1.00
2022-09-15T03:13:06.233Z,1.00
2022-09-15T03:15:34.144Z,0.80
2022-09-15T03:18:02.787Z,1.10
2022-09-15T03:20:30.343Z,0.80
2022-09-15T03:22:57.699Z,0.80
2022-09-15T03:25:27.732Z,0.90
2022-09-15T03:27:55.101Z,1.13
2022-09-15T03:30:22.435Z,0.98
2022-09-15T03:32:49.993Z,0.80
2022-09-15T03:35:17.391Z,0.87
2022-09-15T03:37:44.736Z,0.90
2022-09-15T03:40:12.154Z,0.90
2022-09-15T03:42:41.293Z,0.90
2022-09-15T03:45:08.937Z,0.95
2022-09-15T03:47:36.287Z,0.90
2022-09-15T03:50:04.013Z,0.90
2022-09-15T03:52:32.460Z,0.82
2022-09-15T03:54:59.854Z,0.82
2022-09-15T03:57:27.239Z,1.02
2022-09-15T03:59:55.990Z,0.90
2022-09-15T04:02:23.363Z,0.95
2022-09-15T04:04:50.831Z,0.80
2022-09-15T04:07:18.196Z,0.80
2022-09-15T04:09:46.017Z,0.90
2022-09-15T04:12:13.347Z,0.90
2022-09-15T04:14:40.735Z,1.08
2022-09-15T04:17:10.616Z,0.77
2022-09-15T04:19:38.046Z,0.75
2022-09-15T04:22:05.434Z,0.90
2022-09-15T04:24:32.844Z,0.80
2022-09-15T04:27:00.210Z,0.80
2022-09-15T04:29:27.621Z,0.80
2022-09-15T04:31:54.970Z,0.52
2022-09-15T04:34:24.419Z,0.82
2022-09-15T04:36:51.807Z,0.90
2022-09-15T04:39:19.546Z,0.77
2022-09-15T04:41:46.870Z,0.93
2022-09-15T04:44:14.225Z,0.70
2022-09-15T04:46:41.576Z,0.80
2022-09-15T04:49:08.975Z,0.80
2022-09-15T04:51:37.668Z,1.10
2022-09-15T04:54:05.229Z,1.02
2022-09-15T04:56:32.907Z,1.05
2022-09-15T04:59:03.797Z,0.60
2022-09-15T05:01:32.549Z,1.20
2022-09-15T05:04:02.019Z,0.80
2022-09-15T05:06:29.745Z,0.70
2022-09-15T05:08:58.893Z,0.90
2022-09-15T05:11:26.831Z,0.98
2022-09-15T05:13:54.235Z,0.87
2022-09-15T05:16:22.899Z,0.80
2022-09-15T05:18:50.885Z,0.80
2022-09-15T05:21:19.400Z,0.80
2022-09-15T05:23:47.273Z,0.95
2022-09-15T05:26:17.106Z,0.53
2022-09-15T05:28:44.804Z,0.63
2022-09-15T05:31:14.107Z,0.60
2022-09-15T05:33:41.541Z,1.00
2022-09-15T05:36:09.064Z,0.90
2022-09-15T05:38:36.723Z,0.90
2022-09-15T05:41:04.355Z,0.90
2022-09-15T05:43:34.026Z,0.90
2022-09-15T05:46:01.476Z,0.82
2022-09-15T05:48:29.240Z,0.80
2022-09-15T05:50:57.182Z,0.80
2022-09-15T05:53:24.941Z,0.98
2022-09-15T05:55:55.343Z,1.00
2022-09-15T05:58:23.301Z,0.95
2022-09-15T06:00:53.191Z,0.90
2022-09-15T06:03:21.361Z,1.20
2022-09-15T06:05:48.805Z,0.95
2022-09-15T06:08:16.405Z,1.00
2022-09-15T06:10:43.832Z,1.23
2022-09-15T06:13:11.166Z,0.93
2022-09-15T06:15:38.503Z,1.07
2022-09-15T06:18:07.282Z,1.30
2022-09-15T06:20:35.776Z,1.20
2022-09-15T06:23:03.109Z,0.90
2022-09-15T06:25:30.459Z,1.38
2022-09-15T06:27:58.009Z,1.40
2022-09-15T06:30:25.358Z,1.00
2022-09-15T06:32:52.660Z,1.10
2022-09-15T06:35:21.364Z,0.80
2022-09-15T06:37:48.672Z,0.90
2022-09-15T06:40:16.497Z,0.90
2022-09-15T06:42:43.877Z,1.05
2022-09-15T06:45:11.487Z,1.20
2022-09-15T06:47:38.818Z,1.27
2022-09-15T06:50:06.617Z,0.95
2022-09-15T06:52:36.199Z,0.90
2022-09-15T06:55:03.780Z,0.80
2022-09-15T06:57:31.170Z,1.13
2022-09-15T06:59:58.503Z,0.70
2022-09-15T07:02:25.952Z,1.00
2022-09-15T07:04:53.440Z,0.80
2022-09-15T07:07:20.828Z,0.73
2022-09-15T07:09:49.615Z,1.05
2022-09-15T07:12:17.007Z,0.80
2022-09-15T07:14:44.482Z,1.42
2022-09-15T07:17:14.436Z,0.70
2022-09-15T07:19:43.069Z,0.70
2022-09-15T07:22:11.879Z,0.80
2022-09-15T07:24:39.231Z,1.10
2022-09-15T07:27:08.807Z,1.02
2022-09-15T07:29:38.168Z,0.90
2022-09-15T07:32:05.877Z,0.73
2022-09-15T07:34:33.282Z,0.88
2022-09-15T07:37:00.651Z,0.90
2022-09-15T07:39:28.571Z,0.70
2022-09-15T07:41:55.951Z,1.07
2022-09-15T07:44:24.670Z,1.10
2022-09-15T07:46:52.000Z,0.85
2022-09-15T07:49:19.329Z,0.80
2022-09-15T07:51:46.642Z,0.73
2022-09-15T07:54:16.310Z,0.60
2022-09-15T07:56:46.948Z,0.90
2022-09-15T07:59:14.399Z,0.80
2022-09-15T08:01:43.142Z,0.70
2022-09-15T08:04:10.535Z,0.90
2022-09-15T08:06:37.908Z,0.80
2022-09-15T08:09:05.576Z,0.70
2022-09-15T08:11:32.998Z,0.88
2022-09-15T08:14:02.076Z,1.60
2022-09-15T08:16:29.622Z,0.82
2022-09-15T08:18:58.529Z,0.70
2022-09-15T08:21:27.500Z,0.50
2022-09-15T08:23:56.463Z,0.50
2022-09-15T08:26:24.150Z,0.43
2022-09-15T08:28:51.747Z,0.60
2022-09-15T08:31:19.252Z,0.63
2022-09-15T08:33:48.353Z,0.50
2022-09-15T08:36:17.048Z,0.80
2022-09-15T08:38:45.109Z,0.60
2022-09-15T08:41:14.694Z,0.60
2022-09-15T08:43:46.842Z,0.80
2022-09-15T08:46:16.840Z,0.80
2022-09-15T08:48:47.148Z,0.70
2022-09-15T08:51:17.139Z,0.80
2022-09-15T08:53:47.538Z,0.75
2022-09-15T08:56:16.977Z,0.50
2022-09-15T08:58:44.986Z,1.10
2022-09-15T09:01:18.373Z,0.60
2022-09-15T09:04:04.330Z,0.70
2022-09-15T09:06:33.394Z,0.80
2022-09-15T09:09:13.106Z,0.57
2022-09-15T09:11:55.683Z,0.70
2022-09-15T09:14:26.836Z,0.70
2022-09-15T09:17:03.684Z,0.70
2022-09-15T09:19:45.967Z,0.60
2022-09-15T09:22:14.923Z,0.68
2022-09-15T09:24:45.308Z,0.70
2022-09-15T09:27:13.799Z,0.80
2022-09-15T09:29:43.840Z,0.80
2022-09-15T09:32:19.802Z,0.70
2022-09-15T09:34:50.902Z,0.70
2022-09-15T09:37:18.310Z,1.00
2022-09-15T09:39:47.467Z,0.82
2022-09-15T09:42:16.421Z,0.70
2022-09-15T09:44:43.775Z,0.80
2022-09-15T09:47:13.002Z,0.60
2022-09-15T09:49:42.379Z,0.60
2022-09-15T09:52:09.848Z,0.60
2022-09-15T09:54:37.264Z,0.60
2022-09-15T09:57:23.381Z,0.77
2022-09-15T09:59:51.809Z,0.70
2022-09-15T10:02:20.575Z,0.70
2022-09-15T10:04:49.109Z,0.60
2022-09-15T10:07:17.852Z,0.70
2022-09-15T10:09:52.845Z,0.68
2022-09-15T10:12:35.242Z,0.70
2022-09-15T10:15:05.200Z,0.73
2022-09-15T10:17:40.859Z,0.95
2022-09-15T10:20:21.427Z,0.60
2022-09-15T10:22:48.842Z,0.50
2022-09-15T10:25:55.202Z,0.77
2022-09-15T10:28:21.826Z,0.80
2022-09-15T10:31:04.788Z,0.60
2022-09-15T10:33:34.769Z,0.63
2022-09-15T10:36:04.059Z,0.60
2022-09-15T10:38:33.636Z,0.60
2022-09-15T10:41:05.180Z,0.60
2022-09-15T10:43:38.331Z,0.60
2022-09-15T10:46:11.224Z,0.65
2022-09-15T10:48:44.853Z,0.73
2022-09-15T10:51:20.901Z,1.02
2022-09-15T10:54:05.394Z,0.50
2022-09-15T10:56:34.921Z,0.47
2022-09-15T10:59:15.378Z,0.82
2022-09-15T11:01:54.028Z,0.68
2022-09-15T11:04:28.795Z,0.85
2022-09-15T11:07:00.121Z,1.00
2022-09-15T11:09:29.931Z,0.70
2022-09-15T11:12:03.429Z,0.80
2022-09-15T11:14:37.780Z,0.70
2022-09-15T11:17:14.056Z,0.80
2022-09-15T11:19:51.292Z,0.80
2022-09-15T11:22:20.072Z,0.85
2022-09-15T11:24:49.223Z,0.88
2022-09-15T11:27:18.894Z,0.70
2022-09-15T11:30:01.213Z,0.75
2022-09-15T11:32:31.855Z,0.67
2022-09-15T11:35:01.470Z,0.77
2022-09-15T11:37:35.174Z,0.50
2022-09-15T11:40:06.146Z,0.82
2022-09-15T11:42:35.331Z,1.10
2022-09-15T11:45:03.216Z,0.80
2022-09-15T11:47:34.874Z,0.73
2022-09-15T11:50:04.193Z,1.20
2022-09-15T11:52:50.435Z,0.90
2022-09-15T11:55:22.636Z,0.65
2022-09-15T11:57:53.025Z,0.77
2022-09-15T12:00:21.651Z,0.90
2022-09-15T12:02:53.491Z,0.70
2022-09-15T12:05:23.830Z,0.80
2022-09-15T12:07:54.071Z,1.10
2022-09-15T12:10:22.688Z,1.00
2022-09-15T12:12:51.413Z,0.80
2022-09-15T12:15:19.827Z,0.88
2022-09-15T12:17:49.795Z,1.02
2022-09-15T12:20:22.745Z,0.77
2022-09-15T12:22:51.735Z,0.80
2022-09-15T12:25:21.020Z,0.90
2022-09-15T12:28:03.237Z,0.80
2022-09-15T12:30:41.094Z,0.88
2022-09-15T12:33:23.333Z,1.10
2022-09-15T12:35:52.039Z,0.70
2022-09-15T12:38:19.458Z,0.70
2022-09-15T12:40:46.782Z,1.20
2022-09-15T12:43:19.043Z,0.82
2022-09-15T12:45:55.331Z,1.00
2022-09-15T12:48:23.432Z,0.90
2022-09-15T12:50:55.016Z,1.00
2022-09-15T12:53:23.118Z,0.80
2022-09-15T12:55:52.287Z,0.85
2022-09-15T12:58:22.495Z,0.90
2022-09-15T13:01:16.520Z,0.90
2022-09-15T13:03:57.724Z,0.80
2022-09-15T13:06:26.718Z,0.98
2022-09-15T13:08:55.662Z,1.20
2022-09-15T13:11:26.779Z,1.00
2022-09-15T13:13:55.707Z,0.80
2022-09-15T13:16:27.413Z,0.90
2022-09-15T13:19:05.335Z,0.65
2022-09-15T13:21:34.959Z,1.00
2022-09-15T13:24:03.999Z,0.75
2022-09-15T13:26:31.557Z,1.00
2022-09-15T13:28:59.361Z,0.80
2022-09-15T13:31:34.540Z,0.80
2022-09-15T13:40:07.377Z,0.70
2022-09-15T13:42:42.354Z,0.65
2022-09-15T13:45:23.984Z,0.60
2022-09-15T13:47:59.757Z,0.70
2022-09-15T13:50:32.042Z,0.60
2022-09-15T13:53:06.979Z,0.50
2022-09-15T13:55:38.199Z,0.60
2022-09-15T14:00:58.733Z,0.90
2022-09-15T14:03:28.156Z,0.82
2022-09-15T14:05:56.399Z,0.70
2022-09-15T14:08:26.650Z,0.70
2022-09-15T14:10:55.901Z,0.50
2022-09-15T14:13:24.785Z,0.95
2022-09-15T14:15:59.332Z,0.70
2022-09-15T14:18:26.787Z,0.70
2022-09-15T14:21:02.280Z,0.80
2022-09-15T14:23:31.488Z,0.85
2022-09-15T14:26:00.142Z,0.80
2022-09-15T14:28:31.499Z,1.00
2022-09-15T14:30:59.273Z,1.00
2022-09-15T14:33:26.821Z,0.80
2022-09-15T14:35:54.136Z,0.57
2022-09-15T14:38:22.535Z,0.75
2022-09-15T14:40:53.184Z,0.50
2022-09-15T14:43:24.931Z,1.02
2022-09-15T14:45:57.945Z,0.73
2022-09-15T14:48:29.966Z,0.65
2022-09-15T14:51:01.166Z,0.50
2022-09-15T14:53:29.105Z,1.00
2022-09-15T14:56:02.254Z,1.00
2022-09-15T14:58:36.027Z,0.70
2022-09-15T15:01:06.307Z,1.10
2022-09-15T15:03:36.100Z,0.80
2022-09-15T15:06:25.365Z,0.80
2022-09-15T15:08:54.505Z,0.90
2022-09-15T15:11:23.495Z,0.80
2022-09-15T15:13:53.285Z,0.70
2022-09-15T15:16:22.190Z,1.00
2022-09-15T15:18:51.143Z,0.82
2022-09-15T15:21:40.414Z,0.90
2022-09-15T15:24:17.204Z,0.80
2022-09-15T15:26:46.436Z,0.88
2022-09-15T15:29:28.776Z,1.38
2022-09-15T15:32:04.399Z,0.90
2022-09-15T15:34:31.814Z,0.82
2022-09-15T15:37:02.807Z,0.70
2022-09-15T15:39:30.187Z,1.00
2022-09-15T15:42:02.897Z,0.77
2022-09-15T15:44:30.722Z,0.98
2022-09-15T15:47:01.405Z,0.90
2022-09-15T15:49:29.665Z,0.90
2022-09-15T15:51:57.432Z,0.90
2022-09-15T15:54:25.180Z,1.00
2022-09-15T15:56:52.560Z,1.30
2022-09-15T15:59:21.322Z,0.70
2022-09-15T16:01:51.671Z,0.80
2022-09-15T16:04:19.091Z,1.00
2022-09-15T16:06:47.027Z,1.05
2022-09-15T16:09:14.542Z,0.60
2022-09-15T16:11:42.223Z,0.82
2022-09-15T16:14:10.790Z,0.87
2022-09-15T16:16:39.679Z,0.95
2022-09-15T16:19:08.392Z,0.90
2022-09-15T16:21:37.261Z,1.27
2022-09-15T16:24:05.013Z,0.90
2022-09-15T16:26:34.427Z,1.03
2022-09-15T16:29:01.941Z,0.88
2022-09-15T16:31:29.761Z,0.80
2022-09-15T16:33:58.477Z,1.13
2022-09-15T16:36:26.746Z,1.17
2022-09-15T16:38:54.285Z,0.93
2022-09-15T16:41:23.166Z,0.70
2022-09-15T16:43:50.710Z,0.80
2022-09-15T16:46:18.133Z,0.35
2022-09-15T16:48:47.072Z,0.50
2022-09-15T16:51:27.077Z,0.40
2022-09-15T16:53:55.986Z,0.70
2022-09-15T16:56:23.313Z,0.55
2022-09-15T16:58:54.783Z,0.65
2022-09-15T17:01:25.189Z,0.80
2022-09-15T17:03:52.635Z,0.50
2022-09-15T17:06:21.961Z,0.90
2022-09-15T17:08:49.356Z,0.70
2022-09-15T17:11:17.751Z,0.90
2022-09-15T17:13:45.743Z,0.80
2022-09-15T17:16:13.831Z,0.60
2022-09-15T17:18:41.287Z,0.50
2022-09-15T17:21:10.515Z,0.80
2022-09-15T17:23:40.483Z,0.50
2022-09-15T17:26:11.526Z,0.60
2022-09-15T17:28:39.465Z,0.70
2022-09-15T17:31:07.809Z,0.75
2022-09-15T17:33:35.172Z,0.65
2022-09-15T17:36:02.925Z,0.80
2022-09-15T17:38:30.426Z,0.65
2022-09-15T17:40:59.107Z,0.90
2022-09-15T17:43:28.787Z,0.70
2022-09-15T17:45:56.535Z,0.77
2022-09-15T17:48:24.667Z,0.90
2022-09-15T17:50:52.280Z,1.00
2022-09-15T17:53:21.330Z,0.80
2022-09-15T17:55:49.051Z,0.90
2022-09-15T17:58:18.212Z,0.90
2022-09-15T18:00:46.586Z,0.90
2022-09-15T18:03:19.028Z,0.82
2022-09-15T18:05:46.461Z,1.10
2022-09-15T18:08:13.860Z,1.58
2022-09-15T18:10:41.183Z,1.33
2022-09-15T18:13:08.543Z,0.95
2022-09-15T18:15:37.290Z,1.00
2022-09-15T18:18:09.035Z,1.00
2022-09-15T18:20:36.643Z,0.95
2022-09-15T18:23:03.977Z,1.50
2022-09-15T18:25:32.209Z,0.95
2022-09-15T18:27:59.993Z,0.95
2022-09-15T18:30:28.490Z,1.20
2022-09-15T18:32:57.427Z,0.90
2022-09-15T18:35:25.080Z,0.90
2022-09-15T18:37:55.667Z,1.40
2022-09-15T18:40:23.047Z,0.98
2022-09-15T18:42:50.455Z,0.90
2022-09-15T18:45:18.700Z,0.70
2022-09-15T18:47:47.512Z,0.80
2022-09-15T18:50:16.691Z,0.90
2022-09-15T18:52:44.255Z,0.70
2022-09-15T18:55:13.651Z,0.50
2022-09-15T18:57:41.577Z,0.73
2022-09-15T19:00:10.303Z,1.45
2022-09-15T19:02:37.810Z,1.00
2022-09-15T19:05:05.559Z,1.08
2022-09-15T19:07:34.711Z,0.87
2022-09-15T19:10:02.062Z,1.00
2022-09-15T19:12:29.437Z,0.70
2022-09-15T19:14:56.792Z,0.60
2022-09-15T19:17:24.127Z,0.98
2022-09-15T19:19:51.503Z,0.80
2022-09-15T19:22:18.945Z,0.50
2022-09-15T19:24:47.715Z,0.70
2022-09-15T19:27:15.387Z,0.70
2022-09-15T19:29:42.786Z,0.70
2022-09-15T19:32:11.895Z,0.77
2022-09-15T19:34:41.796Z,0.70
2022-09-15T19:37:13.061Z,0.93
2022-09-15T19:39:42.734Z,0.80
2022-09-15T19:42:11.782Z,0.60
2022-09-15T19:44:39.230Z,0.70
2022-09-15T19:47:06.602Z,0.70
2022-09-15T19:49:34.095Z,0.80
2022-09-15T19:52:01.450Z,0.90
2022-09-15T19:54:29.930Z,0.80
2022-09-15T19:56:57.416Z,0.60
2022-09-15T19:59:30.766Z,0.65
2022-09-15T20:01:58.888Z,0.88
2022-09-15T20:04:26.308Z,0.40
2022-09-15T20:06:53.618Z,0.57
2022-09-15T20:09:20.959Z,0.60
2022-09-15T20:11:48.336Z,0.75
2022-09-15T20:14:15.809Z,0.70
2022-09-15T20:16:44.606Z,0.80
2022-09-15T20:19:12.011Z,0.60
2022-09-15T20:21:56.092Z,0.50
2022-09-15T20:24:24.582Z,0.70
2022-09-15T20:26:52.115Z,0.55
2022-09-15T20:29:19.563Z,0.55
2022-09-15T20:31:48.659Z,0.63
2022-09-15T20:34:16.310Z,0.57
2022-09-15T20:36:44.384Z,1.08
2022-09-15T20:39:13.242Z,1.10
2022-09-15T20:41:41.252Z,0.90
2022-09-15T20:44:10.020Z,0.70
2022-09-15T20:46:37.695Z,0.80
2022-09-15T20:49:06.515Z,1.02
2022-09-15T20:51:34.049Z,1.20
2022-09-15T20:54:03.260Z,0.88
2022-09-15T20:56:31.149Z,0.90
2022-09-15T20:58:59.340Z,0.57
2022-09-15T21:01:27.886Z,0.90
2022-09-15T21:03:55.892Z,0.70
2022-09-15T21:06:25.764Z,0.70
2022-09-15T21:08:53.779Z,0.90
2022-09-15T21:11:21.499Z,0.73
2022-09-15T21:13:49.274Z,0.60
2022-09-15T21:16:17.264Z,0.47
2022-09-15T21:18:45.749Z,0.52
2022-09-15T21:21:14.440Z,0.52
2022-09-15T21:23:44.202Z,0.30
2022-09-15T21:26:12.529Z,0.68
2022-09-15T21:28:40.193Z,0.47
2022-09-15T21:31:08.466Z,0.77
2022-09-15T21:33:36.155Z,0.85
2022-09-15T21:36:04.957Z,0.63
2022-09-15T21:38:32.504Z,0.95
2022-09-15T21:41:01.432Z,0.88
2022-09-15T21:43:31.813Z,1.05
2022-09-15T21:45:59.809Z,0.85
2022-09-15T21:48:28.407Z,1.17
2022-09-15T21:50:55.719Z,0.70
2022-09-15T21:53:23.189Z,1.08
2022-09-15T21:55:51.006Z,1.10
2022-09-15T21:58:20.784Z,0.65
2022-09-15T22:00:49.018Z,1.10
2022-09-15T22:03:17.414Z,0.80
2022-09-15T22:05:45.927Z,0.93
2022-09-15T22:08:14.533Z,0.93
2022-09-15T22:10:42.228Z,0.80
2022-09-15T22:13:10.416Z,0.90
2022-09-15T22:15:39.123Z,0.65
2022-09-15T22:18:06.701Z,0.75
2022-09-15T22:20:34.788Z,0.70
2022-09-15T22:23:02.185Z,0.70
2022-09-15T22:25:29.883Z,0.70
2022-09-15T22:27:57.207Z,0.60
2022-09-15T22:30:24.702Z,0.70
2022-09-15T22:32:53.429Z,0.65
2022-09-15T22:35:20.949Z,0.93
2022-09-15T22:37:48.348Z,0.70
2022-09-15T22:40:16.987Z,0.60
2022-09-15T22:42:44.477Z,0.65
2022-09-15T22:45:11.942Z,0.47
2022-09-15T22:47:39.280Z,1.02
2022-09-15T22:50:08.282Z,0.70
2022-09-15T22:52:35.627Z,0.45
2022-09-15T22:55:03.162Z,0.80
2022-09-15T22:57:30.934Z,1.08
2022-09-15T22:59:58.321Z,1.20
2022-09-15T23:02:25.723Z,0.70
2022-09-15T23:04:54.160Z,0.80
2022-09-15T23:07:22.877Z,0.50
2022-09-15T23:09:50.340Z,0.50
2022-09-15T23:12:18.035Z,0.80
2022-09-15T23:14:45.418Z,0.80
2022-09-15T23:17:13.106Z,0.50
2022-09-15T23:19:40.439Z,0.40
2022-09-15T23:22:07.827Z,0.70
2022-09-15T23:24:36.620Z,0.60
2022-09-15T23:27:04.353Z,0.60
2022-09-15T23:29:31.824Z,0.60
2022-09-15T23:31:59.263Z,0.85
2022-09-15T23:34:26.984Z,0.60
2022-09-15T23:36:54.775Z,0.60
2022-09-15T23:39:22.226Z,0.80
2022-09-15T23:41:50.916Z,0.75
2022-09-15T23:44:18.287Z,0.98
2022-09-15T23:46:45.732Z,0.63
2022-09-15T23:49:17.964Z,0.80
2022-09-15T23:51:45.991Z,0.70
2022-09-15T23:54:13.528Z,0.60
2022-09-15T23:56:40.927Z,0.65
2022-09-15T23:59:09.860Z,1.08
